Time;durP1;ratioP1;P1;durP2;ratioP2;P2;SDS_P1;SDS_P2;PMS_P1;PMS_P2;Temp;Humidity;BMP_temperature;BMP_pressure;BME280_temperature;BME280_humidity;BME280_pressure;Samples;Min_cycle;Max_cycle;Signal;HPM_P1;HPM_P2
2023/01/08 00:01:07;;;;;;;8.45;5.87;;;;;;;6.83;63.51;102722.66;1637310;87;21053;-57
2023/01/08 00:03:35;;;;;;;8.75;6.05;;;;;;;6.83;63.40;102712.30;1566394;91;21517;-57
2023/01/08 00:06:07;;;;;;;9.88;6.15;;;;;;;6.82;63.32;102714.45;1558416;91;21071;-57
2023/01/08 00:08:33;;;;;;;7.53;6.10;;;;;;;6.82;63.02;102709.28;1557071;91;21051;-59
2023/01/08 00:11:01;;;;;;;10.98;6.37;;;;;;;6.79;63.22;102711.78;1562854;91;21550;-57
2023/01/08 00:13:28;;;;;;;10.20;6.30;;;;;;;6.79;63.15;102726.00;1552002;90;21116;-58
2023/01/08 00:15:54;;;;;;;8.23;5.37;;;;;;;6.77;62.96;102716.04;1549189;91;21071;-57
2023/01/08 00:18:21;;;;;;;12.35;6.03;;;;;;;6.76;62.66;102725.95;1556836;91;21115;-57
2023/01/08 00:20:48;;;;;;;10.88;6.67;;;;;;;6.77;62.72;102745.80;1554002;91;21607;-56
2023/01/08 00:23:16;;;;;;;9.03;6.15;;;;;;;6.79;63.01;102739.83;1555489;91;21225;-57
2023/01/08 00:25:43;;;;;;;8.23;5.42;;;;;;;6.79;62.59;102732.06;1558861;91;21061;-57
2023/01/08 00:28:10;;;;;;;12.05;6.35;;;;;;;6.82;62.62;102733.86;1551965;91;21105;-57
2023/01/08 00:30:37;;;;;;;9.90;6.42;;;;;;;6.79;62.43;102732.48;1557332;91;22167;-57
2023/01/08 00:33:03;;;;;;;11.65;7.15;;;;;;;6.79;62.52;102728.59;1561561;91;21625;-57
2023/01/08 00:35:30;;;;;;;9.73;6.00;;;;;;;6.82;62.93;102735.16;1552116;91;21180;-57
2023/01/08 00:37:57;;;;;;;12.40;7.15;;;;;;;6.85;62.59;102735.22;1559969;91;21094;-58
2023/01/08 00:40:23;;;;;;;12.85;7.15;;;;;;;6.87;62.54;102734.83;1561767;91;21079;-57
2023/01/08 00:42:50;;;;;;;9.65;6.75;;;;;;;6.88;62.57;102724.55;1561357;90;21562;-57
2023/01/08 00:45:16;;;;;;;12.90;7.40;;;;;;;6.89;62.44;102716.33;1583141;90;21107;-57
2023/01/08 00:47:43;;;;;;;12.18;7.75;;;;;;;6.88;62.50;102717.19;1526574;93;21567;-57
2023/01/08 00:50:09;;;;;;;9.70;6.00;;;;;;;6.87;62.55;102720.19;1580304;88;21049;-57
2023/01/08 00:52:37;;;;;;;12.43;7.20;;;;;;;6.85;62.25;102706.75;1654392;86;21086;-57
2023/01/08 00:55:05;;;;;;;13.25;7.22;;;;;;;6.82;62.38;102714.45;1636312;86;21059;-58
2023/01/08 00:57:34;;;;;;;10.82;6.97;;;;;;;6.80;62.44;102705.34;1647682;86;21490;-57
2023/01/08 01:00:01;;;;;;;11.08;7.30;;;;;;;6.78;62.65;102711.34;1673839;82;21010;-57
2023/01/08 01:02:28;;;;;;;12.47;7.17;;;;;;;6.79;62.78;102726.00;1736185;80;21031;-57
2023/01/08 01:04:54;;;;;;;10.08;6.25;;;;;;;6.81;62.68;102726.92;1757013;80;21085;-57
2023/01/08 01:07:21;;;;;;;11.43;7.08;;;;;;;6.80;62.45;102722.59;1761969;81;21078;-57
2023/01/08 01:09:49;;;;;;;12.98;7.92;;;;;;;6.80;62.54;102718.72;1772753;80;21034;-58
2023/01/08 01:12:16;;;;;;;10.82;7.22;;;;;;;6.80;62.50;102708.37;1765772;80;21576;-57
2023/01/08 01:14:42;;;;;;;10.85;6.62;;;;;;;6.81;62.53;102710.10;1750363;81;21468;-57
2023/01/08 01:17:11;;;;;;;11.43;7.62;;;;;;;6.81;62.30;102699.75;1758375;80;21555;-58
2023/01/08 01:19:37;;;;;;;9.53;6.50;;;;;;;6.80;62.28;102712.25;1740424;81;21575;-57
2023/01/08 01:22:04;;;;;;;9.13;6.20;;;;;;;6.79;62.46;102706.19;1766355;80;21069;-57
2023/01/08 01:24:31;;;;;;;12.95;7.05;;;;;;;6.79;62.41;102705.31;1762832;80;21030;-57
2023/01/08 01:26:57;;;;;;;10.48;7.85;;;;;;;6.79;62.39;102710.48;1751667;81;21518;-58
2023/01/08 01:29:25;;;;;;;10.53;7.33;;;;;;;6.79;62.41;102704.02;1764468;80;21050;-58
2023/01/08 01:31:53;;;;;;;13.95;6.95;;;;;;;6.79;62.44;102697.55;1749550;80;21490;-57
2023/01/08 01:34:21;;;;;;;14.95;7.60;;;;;;;6.79;62.38;102697.55;1770740;80;21038;-57
2023/01/08 01:36:47;;;;;;;11.18;7.17;;;;;;;6.78;62.34;102699.25;1774515;80;21026;-57
2023/01/08 01:39:14;;;;;;;14.98;7.45;;;;;;;6.78;62.38;102690.64;1758648;80;21088;-57
2023/01/08 01:41:43;;;;;;;9.63;7.00;;;;;;;6.79;62.34;102700.13;1763864;80;20987;-57
2023/01/08 01:44:41;;;;;;;11.57;7.28;;;;;;;6.79;62.42;102700.13;1755978;80;21022;-57
2023/01/08 01:47:30;;;;;;;9.83;6.67;;;;;;;6.80;62.20;102701.91;1726011;82;21030;-57
2023/01/08 01:50:06;;;;;;;10.08;7.03;;;;;;;6.77;62.34;102699.22;1683489;84;21506;-58
2023/01/08 01:52:37;;;;;;;15.45;8.10;;;;;;;6.78;62.47;102693.23;1663837;85;21054;-57
2023/01/08 01:55:05;;;;;;;11.43;7.73;;;;;;;6.76;62.50;102687.14;1651152;85;21583;-57
2023/01/08 01:57:33;;;;;;;12.05;7.22;;;;;;;6.75;62.69;102685.38;1655073;85;21063;-57
2023/01/08 02:00:00;;;;;;;11.20;7.30;;;;;;;6.74;62.82;102691.41;1647309;85;21547;-57
2023/01/08 02:02:26;;;;;;;11.35;7.25;;;;;;;6.75;62.57;102702.19;1661768;85;21077;-57
2023/01/08 02:04:53;;;;;;;10.75;6.95;;;;;;;6.76;62.66;102716.89;1663156;85;21575;-57
2023/01/08 02:07:40;;;;;;;12.33;7.80;;;;;;;6.76;62.46;102698.78;1643468;86;21122;-57
2023/01/08 02:10:10;;;;;;;10.55;6.90;;;;;;;6.75;62.62;102694.02;1664496;85;21086;-57
2023/01/08 02:12:54;;;;;;;8.98;6.85;;;;;;;6.77;62.48;102696.64;1663194;85;21625;-57
2023/01/08 02:15:42;;;;;;;18.60;8.13;;;;;;;6.76;62.26;102692.31;1655186;85;21038;-57
2023/01/08 02:18:13;;;;;;;13.48;7.87;;;;;;;6.74;62.26;102694.84;1651233;85;21019;-57
2023/01/08 02:20:53;;;;;;;12.28;7.37;;;;;;;6.74;62.14;102701.75;1656257;85;21099;-57
2023/01/08 02:23:47;;;;;;;11.83;6.75;;;;;;;6.74;62.14;102693.99;1627683;86;21080;-57
2023/01/08 02:26:33;;;;;;;12.20;7.35;;;;;;;6.73;62.11;102692.22;1626462;88;21159;-57
2023/01/08 02:29:09;;;;;;;11.60;6.85;;;;;;;6.73;62.32;102694.81;1607316;88;21034;-57
2023/01/08 02:31:38;;;;;;;14.23;7.47;;;;;;;6.72;62.28;102698.25;1626508;87;21037;-57
2023/01/08 02:34:05;;;;;;;12.53;7.37;;;;;;;6.70;62.27;102694.75;1611175;88;21090;-57
2023/01/08 02:36:49;;;;;;;11.60;6.40;;;;;;;6.70;62.38;102698.63;1646948;87;21066;-57
2023/01/08 02:39:31;;;;;;;10.82;6.85;;;;;;;6.70;62.49;102702.52;1619415;88;21624;-57
2023/01/08 02:42:26;;;;;;;12.00;7.00;;;;;;;6.71;62.52;102696.48;1615012;88;21098;-57
2023/01/08 02:45:16;;;;;;;11.97;7.35;;;;;;;6.73;62.22;102705.16;1621964;88;21270;-57
2023/01/08 02:48:09;;;;;;;10.45;7.03;;;;;;;6.75;62.17;102706.95;1614626;88;21630;-58
2023/01/08 02:50:45;;;;;;;15.98;7.60;;;;;;;6.74;61.99;102700.02;1634014;87;21043;-57
2023/01/08 02:53:24;;;;;;;10.05;7.22;;;;;;;6.74;61.84;102696.58;1635080;86;21572;-58
2023/01/08 02:56:00;;;;;;;11.05;7.60;;;;;;;6.72;61.94;102700.84;1635461;86;21108;-57
2023/01/08 02:58:28;;;;;;;11.57;7.20;;;;;;;6.73;62.02;102703.86;1588761;88;21053;-57
2023/01/08 03:00:55;;;;;;;11.73;7.40;;;;;;;6.73;61.98;102714.22;1599117;87;21093;-58
2023/01/08 03:03:26;;;;;;;15.32;7.70;;;;;;;6.72;61.73;102698.25;1611923;87;21081;-58
2023/01/08 03:06:05;;;;;;;11.78;7.05;;;;;;;6.71;61.88;102697.37;1612308;87;21537;-57
2023/01/08 03:08:41;;;;;;;11.40;6.92;;;;;;;6.71;61.78;102701.66;1612346;87;21086;-57
2023/01/08 03:11:10;;;;;;;12.25;6.87;;;;;;;6.70;61.77;102698.63;1609862;87;21093;-57
2023/01/08 03:13:52;;;;;;;14.73;8.38;;;;;;;6.71;61.91;102701.66;1612482;87;21049;-57
2023/01/08 03:16:29;;;;;;;10.90;7.05;;;;;;;6.69;61.74;102693.88;1566269;91;21541;-57
2023/01/08 03:19:02;;;;;;;11.95;6.65;;;;;;;6.70;61.92;102692.16;1568895;89;21066;-57
2023/01/08 03:21:29;;;;;;;14.68;7.30;;;;;;;6.71;62.03;102688.73;1584235;89;21074;-58
2023/01/08 03:23:55;;;;;;;12.07;6.97;;;;;;;6.72;61.93;102696.95;1578393;89;21192;-57
2023/01/08 03:26:25;;;;;;;11.90;7.22;;;;;;;6.71;61.95;102692.19;1584281;89;21243;-57
2023/01/08 03:28:53;;;;;;;10.18;6.60;;;;;;;6.73;61.85;102695.69;1580079;89;21090;-57
2023/01/08 03:31:19;;;;;;;9.83;6.65;;;;;;;6.73;61.77;102694.81;1586070;90;21047;-57
2023/01/08 03:33:46;;;;;;;10.13;6.67;;;;;;;6.73;61.44;102699.58;1582875;89;21087;-57
2023/01/08 03:36:17;;;;;;;13.00;7.12;;;;;;;6.72;61.34;102681.44;1582595;89;21092;-58
2023/01/08 03:38:48;;;;;;;11.03;6.60;;;;;;;6.70;61.55;102685.70;1563878;89;21109;-57
2023/01/08 03:41:17;;;;;;;;;;;;;;;6.68;61.59;102674.44;1555108;91;21047;-57
2023/01/08 03:43:44;;;;;;;13.70;6.95;;;;;;;6.68;61.54;102670.56;1556402;90;20147;-57
2023/01/08 03:46:15;;;;;;;11.83;6.92;;;;;;;6.66;62.01;102679.99;1556830;91;21087;-57
2023/01/08 03:48:42;;;;;;;10.65;6.37;;;;;;;6.64;61.96;102684.22;1556555;91;21114;-58
2023/01/08 03:51:09;;;;;;;13.60;6.78;;;;;;;6.62;62.03;102691.07;1533524;91;21099;-58
2023/01/08 03:53:36;;;;;;;15.05;6.90;;;;;;;6.61;62.20;102689.34;1536980;91;21068;-58
2023/01/08 03:56:03;;;;;;;13.75;6.90;;;;;;;6.59;62.19;102694.03;1571665;89;21658;-58
2023/01/08 03:58:29;;;;;;;10.63;7.05;;;;;;;6.59;62.62;102700.50;1571573;89;21110;-58
2023/01/08 04:00:56;;;;;;;12.18;6.90;;;;;;;6.60;62.51;102696.21;1605868;88;21091;-59
2023/01/08 04:03:23;;;;;;;15.85;7.65;;;;;;;6.59;62.41;102708.27;1609962;87;21616;-58
2023/01/08 04:05:50;;;;;;;12.53;6.65;;;;;;;6.59;62.48;102713.44;1630357;86;21175;-58
2023/01/08 04:08:17;;;;;;;12.95;6.92;;;;;;;6.58;62.43;102708.23;1644083;86;21201;-58
2023/01/08 04:10:44;;;;;;;11.75;7.12;;;;;;;6.58;62.35;102714.29;1640252;86;21516;-58
2023/01/08 04:13:10;;;;;;;12.73;7.15;;;;;;;6.56;62.53;102703.03;1648709;86;21050;-58
2023/01/08 04:15:37;;;;;;;11.05;6.80;;;;;;;6.58;62.43;102701.36;1620530;87;21559;-58
2023/01/08 04:18:04;;;;;;;10.05;6.40;;;;;;;6.57;62.26;102712.52;1641845;86;21082;-58
2023/01/08 04:20:30;;;;;;;12.07;7.05;;;;;;;6.54;62.30;102712.47;1635463;86;21646;-58
2023/01/08 04:22:57;;;;;;;15.28;7.03;;;;;;;6.52;62.27;102714.14;1660511;85;21160;-58
2023/01/08 04:25:24;;;;;;;12.45;6.53;;;;;;;6.51;62.42;102720.12;1635240;85;21710;-58
2023/01/08 04:27:50;;;;;;;15.35;6.97;;;;;;;6.49;62.41;102714.04;1643493;86;21031;-58
2023/01/08 04:30:17;;;;;;;15.80;7.00;;;;;;;6.46;62.36;102719.16;1641905;86;21593;-58
2023/01/08 04:32:43;;;;;;;14.10;7.15;;;;;;;6.46;62.39;102721.73;1631991;86;21088;-58
2023/01/08 04:35:10;;;;;;;9.40;6.47;;;;;;;6.44;62.16;102727.28;1651171;86;21543;-59
2023/01/08 04:37:37;;;;;;;13.28;7.55;;;;;;;6.42;62.17;102735.42;1679154;80;21545;-59
2023/01/08 04:40:06;;;;;;;11.05;6.50;;;;;;;6.42;62.25;102741.00;1744643;80;21050;-59
2023/01/08 04:42:33;;;;;;;12.65;7.75;;;;;;;6.41;62.22;102740.53;1753543;80;21487;-58
2023/01/08 04:45:00;;;;;;;10.55;5.95;;;;;;;6.40;62.05;102729.75;1766171;80;21103;-58
2023/01/08 04:47:26;;;;;;;11.18;6.72;;;;;;;6.37;62.25;102737.00;1740634;80;21474;-58
2023/01/08 04:49:53;;;;;;;10.13;6.45;;;;;;;6.37;62.35;102737.41;1757936;80;21018;-59
2023/01/08 04:52:19;;;;;;;11.25;7.28;;;;;;;6.35;62.33;102737.38;1765998;80;21081;-59
2023/01/08 04:54:46;;;;;;;15.15;7.53;;;;;;;6.35;62.52;102741.25;1762174;80;21053;-59
2023/01/08 04:57:13;;;;;;;10.98;6.78;;;;;;;6.35;62.62;102734.78;1763061;80;21054;-58
2023/01/08 04:59:39;;;;;;;10.53;6.50;;;;;;;6.35;62.54;102734.78;1760217;80;20999;-58
2023/01/08 05:02:06;;;;;;;15.63;6.80;;;;;;;6.34;62.85;102734.34;1750797;80;21085;-59
2023/01/08 05:04:32;;;;;;;12.90;6.00;;;;;;;6.35;62.92;102730.02;1762488;80;21046;-58
2023/01/08 05:07:00;;;;;;;16.73;7.00;;;;;;;6.34;63.01;102733.05;1757957;80;21100;-58
2023/01/08 05:09:26;;;;;;;11.80;6.17;;;;;;;6.34;63.27;102726.59;1760854;80;21510;-58
2023/01/08 05:11:53;;;;;;;10.00;5.70;;;;;;;6.33;63.23;102732.58;1748349;80;21036;-59
2023/01/08 05:14:19;;;;;;;10.63;6.03;;;;;;;6.30;63.33;102735.10;1748107;80;21619;-58
2023/01/08 05:16:46;;;;;;;10.13;5.50;;;;;;;6.32;63.55;102741.19;1755355;81;20992;-59
2023/01/08 05:19:13;;;;;;;10.10;6.05;;;;;;;6.31;63.48;102740.71;1740999;81;21117;-59
2023/01/08 05:21:39;;;;;;;9.90;5.37;;;;;;;6.32;63.52;102751.53;1762744;80;21113;-58
2023/01/08 05:24:08;;;;;;;12.07;5.42;;;;;;;6.31;63.54;102749.76;1763522;80;21553;-58
2023/01/08 05:26:35;;;;;;;8.83;5.00;;;;;;;6.31;63.55;102721.32;1749090;81;21339;-59
2023/01/08 05:29:02;;;;;;;9.88;5.30;;;;;;;6.31;63.44;102731.66;1765403;80;21014;-58
2023/01/08 05:31:28;;;;;;;15.48;6.03;;;;;;;6.30;63.61;102723.47;1756895;80;21069;-58
2023/01/08 05:33:57;;;;;;;9.60;5.03;;;;;;;6.28;63.73;102721.26;1748339;80;21022;-58
2023/01/08 05:36:24;;;;;;;13.10;5.70;;;;;;;6.30;63.65;102725.17;1755692;81;21605;-59
2023/01/08 05:38:53;;;;;;;9.73;5.37;;;;;;;6.28;63.58;102726.43;1749969;80;21031;-59
2023/01/08 05:41:20;;;;;;;11.55;5.62;;;;;;;6.27;63.71;102731.53;1749810;80;21471;-59
2023/01/08 05:43:46;;;;;;;10.48;6.00;;;;;;;6.25;63.82;102749.59;1764109;80;21515;-58
2023/01/08 05:46:14;;;;;;;8.65;5.10;;;;;;;6.23;63.83;102742.22;1756002;80;20998;-59
2023/01/08 05:48:41;;;;;;;10.45;5.45;;;;;;;6.24;63.91;102746.98;1774136;80;21007;-59
2023/01/08 05:51:07;;;;;;;6.28;4.55;;;;;;;6.24;63.88;102737.93;1757583;80;21045;-58
2023/01/08 05:53:35;;;;;;;8.00;5.08;;;;;;;6.23;63.69;102729.29;1752822;80;21018;-58
2023/01/08 05:56:04;;;;;;;9.53;4.92;;;;;;;6.19;63.71;102744.26;1750663;80;20990;-59
2023/01/08 05:58:31;;;;;;;9.05;4.42;;;;;;;6.18;63.83;102743.78;1751988;80;20971;-58
2023/01/08 06:01:09;;;;;;;13.55;4.53;;;;;;;6.16;63.82;102744.16;1754755;80;21002;-59
2023/01/08 06:03:37;;;;;;;8.38;4.85;;;;;;;6.14;63.74;102745.83;1692434;83;21073;-58
2023/01/08 06:06:05;;;;;;;10.20;4.85;;;;;;;6.12;63.75;102756.54;1687623;83;21099;-58
2023/01/08 06:08:32;;;;;;;10.58;4.80;;;;;;;6.10;63.82;102763.81;1690233;83;21093;-58
2023/01/08 06:11:01;;;;;;;10.18;5.12;;;;;;;6.09;63.91;102773.27;1698883;83;21072;-59
2023/01/08 06:13:28;;;;;;;11.28;5.50;;;;;;;6.08;63.97;102776.67;1629447;86;21093;-59
2023/01/08 06:15:59;;;;;;;11.00;4.45;;;;;;;6.09;64.10;102770.69;1624583;86;21131;-58
2023/01/08 06:18:27;;;;;;;14.98;5.58;;;;;;;6.09;64.09;102775.86;1594907;88;21541;-58
2023/01/08 06:20:54;;;;;;;8.90;5.10;;;;;;;6.08;64.14;102772.80;1577783;88;21049;-58
2023/01/08 06:23:20;;;;;;;11.30;4.95;;;;;;;6.08;63.99;102774.09;1591261;88;21038;-59
2023/01/08 06:25:56;;;;;;;12.55;4.58;;;;;;;6.08;64.01;102778.41;1593473;88;21096;-59
2023/01/08 06:28:23;;;;;;;7.58;4.65;;;;;;;6.08;64.09;102797.34;1591395;88;21093;-59
2023/01/08 06:30:51;;;;;;;9.28;4.40;;;;;;;6.08;64.02;102801.22;1595176;88;21077;-59
2023/01/08 06:33:18;;;;;;;11.70;4.55;;;;;;;6.08;64.03;102787.45;1583877;88;21151;-58
2023/01/08 06:35:45;;;;;;;10.25;5.30;;;;;;;6.07;64.01;102787.86;1587267;88;21089;-58
2023/01/08 06:38:12;;;;;;;9.20;4.83;;;;;;;6.07;63.83;102789.15;1588493;89;21042;-59
2023/01/08 06:40:39;;;;;;;8.33;4.40;;;;;;;6.05;64.03;102783.06;1587837;88;21108;-58
2023/01/08 06:43:07;;;;;;;9.08;4.58;;;;;;;6.06;64.08;102794.28;1588237;88;21620;-58
2023/01/08 06:45:34;;;;;;;12.37;5.05;;;;;;;6.06;64.16;102791.26;1595714;87;21578;-58
2023/01/08 06:48:05;;;;;;;7.92;4.08;;;;;;;6.04;64.05;102790.78;1591911;88;21093;-59
2023/01/08 06:50:33;;;;;;;10.58;4.90;;;;;;;6.02;63.95;102784.25;1591721;88;21042;-58
2023/01/08 06:52:59;;;;;;;6.05;4.00;;;;;;;6.01;64.18;102790.27;1600026;86;21054;-59
2023/01/08 06:55:26;;;;;;;9.48;4.30;;;;;;;6.00;64.21;102782.04;1632127;86;21085;-59
2023/01/08 06:57:55;;;;;;;11.33;4.62;;;;;;;6.00;64.31;102782.45;1636492;87;21603;-58
2023/01/08 07:00:22;;;;;;;9.43;4.55;;;;;;;6.02;64.46;102779.08;1629181;86;21093;-58
2023/01/08 07:02:50;;;;;;;7.08;4.05;;;;;;;6.02;64.39;102777.79;1643212;86;21158;-59
2023/01/08 07:05:17;;;;;;;5.95;4.12;;;;;;;6.02;64.46;102789.42;1633780;86;21014;-58
2023/01/08 07:07:44;;;;;;;6.85;3.92;;;;;;;6.03;64.37;102789.01;1689834;83;21112;-58
2023/01/08 07:10:11;;;;;;;6.70;4.28;;;;;;;6.02;64.21;102794.59;1739939;80;21113;-58
2023/01/08 07:12:37;;;;;;;8.08;4.28;;;;;;;6.01;64.16;102790.67;1752466;80;21015;-58
2023/01/08 07:15:05;;;;;;;7.08;4.37;;;;;;;5.98;64.20;102787.58;1751830;81;21063;-59
2023/01/08 07:17:33;;;;;;;8.30;4.33;;;;;;;5.98;64.17;102784.11;1746191;81;21462;-59
2023/01/08 07:19:59;;;;;;;11.83;4.45;;;;;;;5.97;64.29;102788.84;1758422;81;21066;-59
2023/01/08 07:22:27;;;;;;;8.80;4.12;;;;;;;5.95;64.54;102787.91;1757269;80;21042;-58
2023/01/08 07:24:53;;;;;;;6.87;3.72;;;;;;;5.96;64.57;102777.61;1756697;80;21034;-59
2023/01/08 07:27:20;;;;;;;8.03;3.67;;;;;;;5.96;64.60;102784.48;1759510;80;21497;-59
2023/01/08 07:29:47;;;;;;;8.50;4.65;;;;;;;5.95;64.56;102787.91;1760612;80;21078;-59
2023/01/08 07:32:13;;;;;;;8.20;3.92;;;;;;;5.95;64.68;102803.02;1771498;80;21538;-59
2023/01/08 07:34:40;;;;;;;7.75;4.35;;;;;;;5.97;64.75;102801.34;1768394;80;21014;-59
2023/01/08 07:37:07;;;;;;;10.00;4.30;;;;;;;5.99;64.72;102800.09;1759710;80;21038;-58
2023/01/08 07:39:34;;;;;;;8.35;3.85;;;;;;;6.01;64.96;102802.30;1759562;80;21495;-58
2023/01/08 07:42:01;;;;;;;9.25;3.72;;;;;;;6.03;64.79;102805.81;1772311;80;21038;-58
2023/01/08 07:44:28;;;;;;;7.30;3.90;;;;;;;6.02;64.75;102811.38;1760023;80;21120;-59
2023/01/08 07:46:55;;;;;;;7.30;3.92;;;;;;;6.02;64.82;102804.08;1769194;80;21050;-58
2023/01/08 07:49:22;;;;;;;9.33;3.98;;;;;;;6.01;64.90;102802.30;1755625;80;21030;-59
2023/01/08 07:51:50;;;;;;;9.50;4.58;;;;;;;6.04;64.99;102808.43;1750445;81;21042;-59
2023/01/08 07:54:16;;;;;;;8.30;3.47;;;;;;;6.05;65.16;102799.86;1759785;80;21084;-58
2023/01/08 07:56:43;;;;;;;6.92;3.40;;;;;;;6.09;65.31;102813.73;1761386;80;21038;-58
2023/01/08 07:59:09;;;;;;;6.28;3.90;;;;;;;6.13;65.34;102806.13;1759354;80;21026;-59
2023/01/08 08:01:36;;;;;;;10.20;4.10;;;;;;;6.13;65.16;102828.09;1762171;80;21548;-58
2023/01/08 08:04:03;;;;;;;6.83;4.10;;;;;;;6.13;65.23;102820.34;1748783;80;21067;-59
2023/01/08 08:06:30;;;;;;;6.83;4.15;;;;;;;6.14;65.24;102817.34;1759780;80;21491;-59
2023/01/08 08:08:58;;;;;;;12.37;4.40;;;;;;;6.15;65.39;102822.55;1777287;80;21481;-58
2023/01/08 08:11:25;;;;;;;8.50;3.72;;;;;;;6.18;65.48;102820.04;1755535;80;21561;-59
2023/01/08 08:13:52;;;;;;;9.75;3.92;;;;;;;6.19;65.52;102823.09;1765297;80;21125;-59
2023/01/08 08:16:20;;;;;;;8.38;4.50;;;;;;;6.22;65.60;102823.61;1749346;80;21022;-59
2023/01/08 08:18:46;;;;;;;10.13;3.55;;;;;;;6.23;65.64;102831.40;1758346;81;21525;-59
2023/01/08 08:21:13;;;;;;;9.13;4.22;;;;;;;6.25;65.58;102820.69;1750930;80;21029;-58
2023/01/08 08:23:41;;;;;;;7.05;3.10;;;;;;;6.26;65.62;102823.75;1756346;80;21006;-58
2023/01/08 08:26:07;;;;;;;8.48;3.47;;;;;;;6.31;65.52;102813.52;1750488;80;21042;-58
2023/01/08 08:28:34;;;;;;;9.43;3.98;;;;;;;6.31;65.48;102818.27;1749215;80;21505;-59
2023/01/08 08:31:02;;;;;;;8.58;3.75;;;;;;;6.33;65.66;102826.95;1752726;80;21042;-58
2023/01/08 08:33:29;;;;;;;7.67;3.33;;;;;;;6.34;65.24;102818.38;1753981;80;21030;-58
2023/01/08 08:35:56;;;;;;;6.85;2.72;;;;;;;6.37;64.90;102817.16;1759987;80;21042;-59
2023/01/08 08:38:25;;;;;;;6.83;3.22;;;;;;;6.36;64.71;102814.53;1748876;80;21003;-59
2023/01/08 08:40:52;;;;;;;5.15;2.67;;;;;;;6.36;64.82;102814.53;1750572;80;21063;-58
2023/01/08 08:43:18;;;;;;;5.70;2.55;;;;;;;6.36;64.64;102816.71;1755254;80;21002;-58
2023/01/08 08:45:45;;;;;;;6.33;3.22;;;;;;;6.35;64.40;102812.36;1768004;80;21497;-58
2023/01/08 08:48:12;;;;;;;7.40;2.92;;;;;;;6.35;64.07;102812.77;1748970;80;21030;-58
2023/01/08 08:50:38;;;;;;;5.83;3.00;;;;;;;6.34;64.32;102811.91;1769460;80;21031;-58
2023/01/08 08:53:06;;;;;;;9.33;2.83;;;;;;;6.36;64.17;102817.12;1761667;80;21041;-58
2023/01/08 08:55:33;;;;;;;8.13;3.30;;;;;;;6.36;64.13;102812.83;1755895;80;20991;-58
2023/01/08 08:58:11;;;;;;;10.68;3.52;;;;;;;6.36;64.35;102802.48;1757326;80;21007;-58
2023/01/08 09:00:42;;;;;;;5.62;2.90;;;;;;;6.38;64.39;102799.94;1667642;85;21069;-58
2023/01/08 09:03:15;;;;;;;5.30;2.97;;;;;;;6.38;64.10;102800.82;1651470;85;21117;-59
2023/01/08 09:05:42;;;;;;;9.85;3.85;;;;;;;6.38;64.09;102796.05;1654236;85;21065;-58
2023/01/08 09:08:09;;;;;;;7.50;3.22;;;;;;;6.38;64.03;102791.77;1649941;85;21038;-58
2023/01/08 09:10:41;;;;;;;7.95;2.72;;;;;;;6.38;63.90;102791.77;1635954;86;21089;-59
2023/01/08 09:13:08;;;;;;;5.30;2.85;;;;;;;6.39;63.89;102784.45;1647509;85;21440;-58
2023/01/08 09:15:36;;;;;;;8.80;3.20;;;;;;;6.40;63.95;102788.81;1650616;85;21060;-58
2023/01/08 09:18:03;;;;;;;4.75;2.67;;;;;;;6.40;63.94;102786.22;1656787;85;21523;-58
2023/01/08 09:20:29;;;;;;;4.78;2.77;;;;;;;6.39;63.91;102792.21;1634551;86;21062;-58
2023/01/08 09:22:59;;;;;;;4.95;2.70;;;;;;;6.40;63.86;102790.51;1654034;85;21085;-58
2023/01/08 09:25:26;;;;;;;9.68;3.20;;;;;;;6.37;63.84;102788.70;1650697;85;21061;-58
2023/01/08 09:28:06;;;;;;;5.65;2.70;;;;;;;6.36;63.97;102786.97;1643379;85;21617;-58
2023/01/08 09:30:33;;;;;;;4.72;2.75;;;;;;;6.34;64.06;102780.89;1653029;85;21035;-58
2023/01/08 09:33:01;;;;;;;5.95;2.62;;;;;;;6.31;64.17;102778.20;1645302;85;21066;-59
2023/01/08 09:35:29;;;;;;;3.83;2.67;;;;;;;6.28;64.21;102782.42;1664499;84;21038;-58
2023/01/08 09:37:55;;;;;;;6.12;2.85;;;;;;;6.26;64.44;102790.14;1660593;85;21084;-58
2023/01/08 09:40:32;;;;;;;3.77;2.25;;;;;;;6.28;64.39;102790.17;1643871;86;21104;-58
2023/01/08 09:43:00;;;;;;;5.10;2.20;;;;;;;6.25;64.39;102783.20;1618957;85;21575;-58
2023/01/08 09:45:30;;;;;;;5.53;2.60;;;;;;;6.21;64.11;102791.70;1665506;84;21525;-57
2023/01/08 09:47:59;;;;;;;7.47;2.22;;;;;;;6.18;64.16;102785.14;1670367;85;21077;-59
2023/01/08 09:50:27;;;;;;;3.22;2.25;;;;;;;6.15;64.29;102782.90;1656340;85;21585;-58
2023/01/08 09:52:53;;;;;;;3.77;2.33;;;;;;;6.14;64.53;102782.02;1677040;85;21057;-57
2023/01/08 09:55:20;;;;;;;6.70;2.67;;;;;;;6.13;64.53;102779.39;1658660;85;21091;-57
2023/01/08 09:57:46;;;;;;;4.03;2.12;;;;;;;6.11;64.73;102769.02;1720301;80;21490;-57
2023/01/08 10:00:16;;;;;;;4.70;2.65;;;;;;;6.12;64.75;102759.13;1750603;80;21038;-57
2023/01/08 10:02:43;;;;;;;4.10;2.35;;;;;;;6.12;64.60;102764.30;1752279;80;21060;-57
2023/01/08 10:05:14;;;;;;;5.53;2.70;;;;;;;6.11;64.92;102765.14;1763917;80;21056;-57
2023/01/08 10:07:40;;;;;;;7.03;2.90;;;;;;;6.14;64.91;102769.53;1727276;82;21122;-57
2023/01/08 10:10:27;;;;;;;8.03;3.08;;;;;;;6.16;64.71;102761.41;1730672;82;21401;-57
2023/01/08 10:12:53;;;;;;;9.98;3.08;;;;;;;6.14;65.00;102753.58;1727309;82;21098;-57
2023/01/08 10:15:20;;;;;;;3.47;2.37;;;;;;;6.17;65.04;102750.21;1726051;82;21095;-57
2023/01/08 10:18:01;;;;;;;5.60;2.87;;;;;;;6.17;65.00;102748.52;1724513;82;21012;-57
2023/01/08 10:20:28;;;;;;;5.65;2.20;;;;;;;6.18;64.82;102750.25;1728210;82;21050;-56
2023/01/08 10:22:55;;;;;;;12.40;3.15;;;;;;;6.19;64.76;102749.43;1724206;82;21097;-57
2023/01/08 10:25:24;;;;;;;6.90;2.47;;;;;;;6.21;64.75;102758.10;1726431;82;21067;-58
2023/01/08 10:27:59;;;;;;;8.18;2.58;;;;;;;6.21;64.69;102754.22;1726170;82;21588;-57
2023/01/08 10:33:20;;;;;;;9.53;2.77;;;;;;;6.18;64.48;102755.41;1644619;86;21087;-57
2023/01/08 10:36:05;;;;;;;6.87;2.77;;;;;;;6.18;64.67;102747.66;1645674;87;21054;-57
2023/01/08 10:38:43;;;;;;;6.45;2.80;;;;;;;6.17;64.65;102744.63;1647021;87;21080;-57
2023/01/08 10:41:11;;;;;;;5.62;2.45;;;;;;;6.18;64.71;102747.66;1628453;87;21146;-57
2023/01/08 10:43:57;;;;;;;7.42;3.12;;;;;;;6.19;64.59;102752.02;1635620;87;21100;-57
2023/01/08 10:46:29;;;;;;;9.48;2.50;;;;;;;6.20;64.73;102744.70;1637431;87;21514;-57
2023/01/08 10:48:59;;;;;;;5.55;2.30;;;;;;;6.22;64.87;102739.16;1529634;92;21028;-57
2023/01/08 10:51:30;;;;;;;4.90;2.45;;;;;;;6.25;64.64;102735.78;1541063;92;21107;-57
2023/01/08 10:54:12;;;;;;;6.17;3.10;;;;;;;6.25;64.49;102736.67;1495132;95;21090;-57
2023/01/08 10:56:42;;;;;;;4.72;2.70;;;;;;;6.26;64.57;102734.56;1488654;95;21093;-58
2023/01/08 10:59:20;;;;;;;5.87;2.58;;;;;;;6.26;64.47;102727.21;1491673;95;21066;-57
2023/01/08 11:01:47;;;;;;;5.97;2.55;;;;;;;6.28;64.42;102728.13;1495902;95;21662;-57
2023/01/08 11:04:20;;;;;;;4.03;2.55;;;;;;;6.27;64.37;102718.61;1496188;95;21167;-58
2023/01/08 11:06:46;;;;;;;4.28;2.47;;;;;;;6.26;63.67;102722.92;1452559;96;21103;-57
2023/01/08 11:09:22;;;;;;;8.45;3.42;;;;;;;6.21;63.66;102719.33;1450195;97;21114;-57
2023/01/08 11:11:48;;;;;;;3.55;2.50;;;;;;;6.19;64.08;102728.75;1421728;100;21195;-57
2023/01/08 11:14:23;;;;;;;5.53;2.55;;;;;;;6.17;64.17;102736.88;1433551;99;21149;-57
2023/01/08 11:16:49;;;;;;;5.60;2.90;;;;;;;6.16;64.15;102727.36;1355836;105;21145;-57
2023/01/08 11:19:27;;;;;;;8.83;3.05;;;;;;;6.12;64.34;102734.56;1361629;105;21219;-57
2023/01/08 11:22:07;;;;;;;4.58;2.62;;;;;;;6.10;64.72;102732.80;1362400;105;21156;-58
2023/01/08 11:24:36;;;;;;;5.37;2.58;;;;;;;6.10;64.79;102727.19;1362655;105;21183;-57
2023/01/08 11:27:30;;;;;;;5.97;3.00;;;;;;;6.08;64.54;102726.27;1390849;100;21575;-57
2023/01/08 11:30:13;;;;;;;5.10;2.50;;;;;;;6.06;64.82;102739.57;1438310;98;21165;-57
2023/01/08 11:32:46;;;;;;;6.50;2.62;;;;;;;6.06;64.49;102730.97;1481116;96;21146;-57
2023/01/08 11:35:28;;;;;;;5.42;2.87;;;;;;;6.03;64.13;102726.98;1449503;98;21122;-57
2023/01/08 11:38:00;;;;;;;7.03;3.17;;;;;;;5.99;64.10;102717.00;1487887;96;21161;-57
2023/01/08 11:40:54;;;;;;;6.60;3.15;;;;;;;5.98;64.53;102719.10;1440154;98;21098;-57
2023/01/08 11:43:47;;;;;;;3.40;2.35;;;;;;;6.00;64.60;102723.01;1477144;96;21135;-57